Terminal Aerodrome Forecast
Issued by NWS Tuscon, AZ

Home | Current Version | Previous Version | Text Only | Print | Product List | Glossary On
Versions: 1 2 3 4 5 6 7 8 9 10 11 12
000
FTUS45 KTWC 021100
TAFDUG
TAF
KDUG 021120Z 0212/0312 VRB03KT P6SM SKC
     FM022000 33006KT P6SM SKC
     FM030300 04005KT P6SM SKC=

USA.gov is the U.S. government's official web portal to all federal, state and local government web resources and services.